Time;durP1;ratioP1;P1;durP2;ratioP2;P2;SDS_P1;SDS_P2;PMS_P1;PMS_P2;Temp;Humidity;BMP_temperature;BMP_pressure;BME280_temperature;BME280_humidity;BME280_pressure;Samples;Min_cycle;Max_cycle;Signal;HPM_P1;HPM_P2
2021/08/11 00:00:30;;;;;;;3.00;1.00;;;;;;;16.92;89.25;99547.44;2015657;81;20162;-85
2021/08/11 00:03:34;;;;;;;4.43;1.00;;;;;;;16.92;89.47;99545.69;2223983;70;20206;-86
2021/08/11 00:14:13;;;;;;;5.43;1.42;;;;;;;16.89;89.92;99545.78;2029477;70;20261;-86
2021/08/11 00:17:16;;;;;;;3.35;1.17;;;;;;;16.89;89.83;99548.41;2014984;78;225685;-85
2021/08/11 00:20:22;;;;;;;4.63;1.26;;;;;;;16.89;89.81;99542.28;2023313;70;20167;-83
2021/08/11 00:23:41;;;;;;;4.13;1.38;;;;;;;16.88;89.85;99548.44;2025261;70;20213;-85
2021/08/11 00:26:44;;;;;;;3.95;1.14;;;;;;;16.85;90.03;99541.50;2042146;70;20219;-85
2021/08/11 00:29:47;;;;;;;3.00;1.01;;;;;;;16.84;89.93;99542.41;2011372;81;20139;-84
2021/08/11 00:32:50;;;;;;;4.36;1.76;;;;;;;16.86;90.04;99534.47;2009659;78;141861;-85
2021/08/11 00:35:54;;;;;;;2.55;1.20;;;;;;;16.87;90.20;99538.81;2011153;81;20194;-86
2021/08/11 00:38:59;;;;;;;4.18;1.24;;;;;;;16.87;90.10;99530.97;2016190;81;20197;-85
2021/08/11 00:42:03;;;;;;;4.61;1.49;;;;;;;16.83;89.85;99531.94;2013491;81;20134;-84
2021/08/11 00:45:06;;;;;;;2.24;1.30;;;;;;;16.77;90.09;99540.00;2010643;81;20177;-85
2021/08/11 00:48:10;;;;;;;3.35;1.10;;;;;;;16.75;90.37;99533.94;2011928;81;20200;-83
2021/08/11 00:51:14;;;;;;;5.11;1.36;;;;;;;16.74;90.42;99538.31;2011735;81;20151;-85
2021/08/11 00:54:18;;;;;;;2.61;1.06;;;;;;;16.76;90.33;99541.75;2010837;81;20207;-85
2021/08/11 00:57:21;;;;;;;2.11;1.20;;;;;;;16.77;90.44;99545.25;2009689;81;20320;-85
2021/08/11 01:00:25;;;;;;;3.88;1.30;;;;;;;16.79;90.42;99538.19;2005884;81;20231;-83
2021/08/11 01:03:29;;;;;;;2.22;1.11;;;;;;;16.80;90.33;99537.28;2013672;81;20253;-84
2021/08/11 01:06:36;;;;;;;1.51;1.19;;;;;;;16.80;90.33;99539.91;2009954;81;20280;-83
2021/08/11 01:09:40;;;;;;;1.95;1.00;;;;;;;16.79;90.27;99541.66;2011152;81;20183;-83
2021/08/11 01:12:43;;;;;;;4.44;1.00;;;;;;;16.78;90.30;99544.34;2006788;81;20290;-84
2021/08/11 01:19:27;;;;;;;3.69;1.26;;;;;;;16.67;90.13;99542.00;2146546;70;21166;-84
2021/08/11 01:25:51;;;;;;;2.86;1.69;;;;;;;16.64;90.36;99549.91;2078749;70;20272;-86
2021/08/11 01:35:46;;;;;;;2.96;1.10;;;;;;;16.59;90.78;99536.06;2044736;70;20578;-87
2021/08/11 01:42:28;;;;;;;3.01;1.25;;;;;;;16.59;91.00;99541.31;2066379;70;20169;-86
2021/08/11 01:45:37;;;;;;;3.92;1.20;;;;;;;16.55;90.95;99545.78;2016067;81;20161;-86
2021/08/11 01:48:42;;;;;;;2.97;1.04;;;;;;;16.51;91.19;99533.63;2015530;81;20166;-84
2021/08/11 01:51:46;;;;;;;2.13;1.01;;;;;;;16.52;91.48;99527.53;2018550;81;20139;-84
2021/08/11 01:54:50;;;;;;;2.51;1.34;;;;;;;16.54;91.61;99540.59;2020159;81;20199;-85
2021/08/11 01:57:55;;;;;;;2.86;1.29;;;;;;;16.53;91.42;99523.13;2018423;81;20139;-85
2021/08/11 02:01:05;;;;;;;2.72;1.09;;;;;;;16.51;91.39;99536.25;2113975;70;1572651;-88
2021/08/11 02:04:09;;;;;;;3.56;1.31;;;;;;;16.49;90.90;99529.34;2019183;80;20150;-84
2021/08/11 02:07:13;;;;;;;2.74;1.20;;;;;;;16.46;90.57;99534.66;2016651;81;20256;-86
2021/08/11 02:10:18;;;;;;;3.44;1.66;;;;;;;16.39;90.50;99530.50;2017039;81;20154;-85
2021/08/11 02:13:21;;;;;;;3.21;1.39;;;;;;;16.32;90.40;99524.53;2016702;81;20126;-84
2021/08/11 02:16:24;;;;;;;2.17;1.10;;;;;;;16.28;90.21;99531.63;2017599;81;20184;-84
2021/08/11 02:19:27;;;;;;;2.41;1.17;;;;;;;16.25;90.11;99536.06;2019431;81;20149;-84
2021/08/11 02:22:30;;;;;;;2.86;1.14;;;;;;;16.20;90.17;99528.34;2017558;81;20196;-86
2021/08/11 02:25:34;;;;;;;4.60;1.30;;;;;;;16.16;90.00;99526.72;2018795;81;20142;-83
2021/08/11 02:28:48;;;;;;;3.40;1.35;;;;;;;16.11;89.99;99535.56;2018217;81;20219;-83
2021/08/11 02:32:09;;;;;;;4.43;1.42;;;;;;;16.06;89.94;99533.06;2016583;81;20146;-82
2021/08/11 02:49:30;;;;;;;3.65;1.52;;;;;;;15.84;90.18;99537.94;2039111;70;20206;-85
2021/08/11 02:52:35;;;;;;;7.88;1.68;;;;;;;15.83;89.97;99538.00;2013172;81;20166;-84
2021/08/11 02:55:38;;;;;;;3.63;1.27;;;;;;;15.78;89.87;99535.44;2014938;81;20204;-83
2021/08/11 02:58:42;;;;;;;3.88;1.55;;;;;;;15.76;90.08;99533.78;2015388;81;20146;-85
2021/08/11 03:01:46;;;;;;;2.75;1.40;;;;;;;15.74;90.27;99530.34;2020574;81;20162;-84
2021/08/11 03:04:50;;;;;;;3.94;1.40;;;;;;;15.71;90.40;99541.75;2016828;81;20202;-84
2021/08/11 03:07:56;;;;;;;1.35;1.06;;;;;;;15.66;90.28;99543.63;2020543;81;20177;-86
2021/08/11 03:11:00;;;;;;;2.30;1.25;;;;;;;15.61;90.35;99541.06;2015421;81;20184;-85
2021/08/11 03:14:05;;;;;;;6.14;2.30;;;;;;;15.59;90.55;99542.88;2015804;81;20243;-83
2021/08/11 03:17:10;;;;;;;1.17;1.08;;;;;;;15.58;90.78;99541.13;2011896;78;182144;-82
2021/08/11 03:20:13;;;;;;;1.86;1.35;;;;;;;15.58;90.80;99532.41;2017710;81;20173;-83
2021/08/11 03:23:16;;;;;;;4.24;1.16;;;;;;;15.56;90.90;99537.69;2017216;81;20183;-83
2021/08/11 03:26:19;;;;;;;3.92;1.56;;;;;;;15.57;90.83;99538.53;2015006;81;20134;-85
2021/08/11 03:29:22;;;;;;;2.96;1.40;;;;;;;15.55;90.77;99538.56;2017107;81;20236;-82
2021/08/11 03:32:25;;;;;;;1.75;1.23;;;;;;;15.52;90.77;99546.50;2012809;78;172907;-84
2021/08/11 03:35:28;;;;;;;3.66;1.49;;;;;;;15.51;90.91;99544.78;2014115;81;20216;-84
2021/08/11 03:38:34;;;;;;;1.29;1.14;;;;;;;15.50;90.94;99545.66;2015847;81;20154;-83
2021/08/11 03:41:37;;;;;;;2.65;1.30;;;;;;;15.47;91.03;99550.13;2013773;81;20178;-84
2021/08/11 03:44:40;;;;;;;4.55;1.20;;;;;;;15.45;91.01;99546.69;2015146;80;20198;-85
2021/08/11 03:47:44;;;;;;;1.86;1.35;;;;;;;15.43;90.88;99541.44;2013795;78;248132;-82
2021/08/11 03:50:47;;;;;;;2.55;1.39;;;;;;;15.42;91.07;99550.19;2014386;81;20170;-84
2021/08/11 03:53:49;;;;;;;2.11;1.26;;;;;;;15.41;91.31;99546.72;2019758;80;20193;-84
2021/08/11 03:56:52;;;;;;;1.60;1.35;;;;;;;15.42;91.47;99550.19;2017033;81;20147;-86
2021/08/11 03:59:55;;;;;;;3.89;1.65;;;;;;;15.45;91.59;99551.91;2015826;81;20162;-85
2021/08/11 04:02:58;;;;;;;6.38;1.40;;;;;;;15.45;91.78;99552.78;2014633;70;155267;-80
2021/08/11 04:06:01;;;;;;;3.95;1.64;;;;;;;15.49;91.99;99553.56;2016025;80;20322;-84
2021/08/11 04:09:04;;;;;;;3.20;1.56;;;;;;;15.50;92.39;99553.53;2016941;81;20183;-84
2021/08/11 04:12:07;;;;;;;7.69;1.46;;;;;;;15.56;92.43;99555.13;2017878;80;20142;-84
2021/08/11 04:15:11;;;;;;;2.63;1.39;;;;;;;15.57;92.26;99562.09;2017708;81;20197;-86
2021/08/11 04:18:14;;;;;;;4.09;1.40;;;;;;;15.56;92.21;99563.84;2014966;81;20250;-84
2021/08/11 04:21:17;;;;;;;1.41;1.08;;;;;;;15.55;92.19;99561.25;2018100;81;20259;-84
2021/08/11 04:24:23;;;;;;;4.71;1.16;;;;;;;15.58;92.40;99566.44;2018023;81;20164;-84
2021/08/11 04:27:26;;;;;;;2.54;1.00;;;;;;;15.59;92.43;99563.81;2014194;81;20168;-81
2021/08/11 04:30:29;;;;;;;2.79;1.10;;;;;;;15.60;92.32;99569.91;2014972;81;20178;-83
2021/08/11 04:33:33;;;;;;;2.20;1.06;;;;;;;15.58;92.16;99572.53;2015493;81;20197;-85
2021/08/11 04:36:36;;;;;;;2.39;1.24;;;;;;;15.59;91.86;99570.81;2015621;81;20173;-83
2021/08/11 04:39:39;;;;;;;2.56;1.54;;;;;;;15.58;91.76;99574.28;2014632;81;20207;-85
2021/08/11 04:42:42;;;;;;;2.58;1.27;;;;;;;15.52;91.81;99569.19;2020698;81;20174;-85
2021/08/11 04:45:45;;;;;;;4.28;1.10;;;;;;;15.49;91.74;99575.34;2014826;81;20203;-85
2021/08/11 04:48:48;;;;;;;3.25;1.10;;;;;;;15.46;91.88;99574.56;2015765;81;20181;-83
2021/08/11 04:51:51;;;;;;;2.50;1.06;;;;;;;15.46;91.88;99583.28;2014949;81;20174;-84
2021/08/11 04:54:54;;;;;;;1.58;1.46;;;;;;;15.48;92.23;99583.25;2013080;81;20204;-85
2021/08/11 04:57:57;;;;;;;3.83;1.02;;;;;;;15.52;92.31;99580.53;2013410;81;20199;-84
2021/08/11 05:00:59;;;;;;;3.65;1.27;;;;;;;15.58;92.23;99576.91;2015629;81;20134;-85
2021/08/11 05:04:03;;;;;;;3.83;1.00;;;;;;;15.57;92.14;99578.66;2015326;81;20165;-86
2021/08/11 05:07:07;;;;;;;3.26;1.04;;;;;;;15.57;92.22;99583.03;2015692;81;20185;-85
2021/08/11 05:10:10;;;;;;;4.85;1.10;;;;;;;15.61;92.40;99582.94;2017781;81;20216;-85
2021/08/11 05:13:14;;;;;;;2.63;1.00;;;;;;;15.70;92.39;99587.16;2017776;81;20219;-83
2021/08/11 05:16:17;;;;;;;3.69;1.29;;;;;;;15.78;92.32;99590.44;2017581;78;187717;-84
2021/08/11 05:19:20;;;;;;;1.67;0.90;;;;;;;15.80;92.17;99599.16;2019270;80;20188;-83
2021/08/11 05:22:23;;;;;;;4.65;1.02;;;;;;;15.79;92.06;99586.91;2020538;80;20169;-85
2021/08/11 05:25:26;;;;;;;4.45;1.39;;;;;;;15.76;91.86;99592.22;2020755;80;20141;-85
2021/08/11 05:28:29;;;;;;;2.35;1.08;;;;;;;15.76;91.89;99594.00;2022959;80;20179;-85
2021/08/11 05:31:34;;;;;;;3.83;1.02;;;;;;;15.80;91.73;99593.91;2021673;78;199968;-85
2021/08/11 05:34:37;;;;;;;5.99;1.13;;;;;;;15.87;91.55;99592.00;2001696;81;20215;-75
2021/08/11 05:37:43;;;;;;;2.25;1.13;;;;;;;15.95;91.33;99601.41;1999710;81;20197;-75
2021/08/11 05:40:46;;;;;;;2.24;0.95;;;;;;;15.96;91.02;99600.50;1999503;81;20239;-75
2021/08/11 05:43:48;;;;;;;2.06;1.00;;;;;;;16.14;90.77;99593.09;2000020;81;20394;-74
2021/08/11 05:46:51;;;;;;;4.04;1.10;;;;;;;16.40;90.22;99587.25;1999438;81;20181;-74
2021/08/11 05:49:54;;;;;;;4.81;1.26;;;;;;;16.71;89.51;99590.00;1999949;81;20766;-74
2021/08/11 05:52:57;;;;;;;4.68;1.00;;;;;;;17.07;88.39;99591.63;2000517;81;20350;-74
2021/08/11 05:55:59;;;;;;;2.41;1.23;;;;;;;17.53;86.68;99591.16;2000988;81;20473;-74
2021/08/11 05:59:02;;;;;;;6.41;1.16;;;;;;;17.78;85.16;99590.47;2000217;81;20289;-74
2021/08/11 06:02:04;;;;;;;3.85;1.09;;;;;;;18.12;83.50;99600.78;2002884;78;39947;-74
2021/08/11 06:05:10;;;;;;;2.70;1.00;;;;;;;18.42;81.56;99607.69;2005346;80;20316;-74
2021/08/11 06:08:13;;;;;;;6.32;1.17;;;;;;;18.76;80.36;99608.34;2005457;80;20173;-74
2021/08/11 06:11:15;;;;;;;4.20;1.35;;;;;;;19.10;79.26;99606.25;2004905;80;20574;-75
2021/08/11 06:14:18;;;;;;;6.21;1.56;;;;;;;19.47;78.11;99600.50;2005372;80;20177;-74
2021/08/11 06:17:21;;;;;;;4.14;1.50;;;;;;;19.83;76.56;99593.00;2000481;78;38906;-74
2021/08/11 06:20:23;;;;;;;4.19;1.30;;;;;;;20.12;75.49;99594.50;2000110;81;20250;-74
2021/08/11 06:23:26;;;;;;;3.17;1.70;;;;;;;20.46;73.82;99601.91;1999894;81;20205;-74
2021/08/11 06:26:30;;;;;;;3.01;1.48;;;;;;;20.81;72.56;99608.34;1999681;81;20219;-75
2021/08/11 06:29:32;;;;;;;3.20;1.55;;;;;;;20.89;71.47;99602.75;1999500;81;20193;-74
2021/08/11 06:32:36;;;;;;;3.21;1.45;;;;;;;20.80;71.82;99608.41;2003040;78;73807;-75
2021/08/11 06:35:39;;;;;;;2.60;1.30;;;;;;;20.76;72.72;99609.47;2004703;80;20193;-75
2021/08/11 06:38:43;;;;;;;4.84;1.44;;;;;;;21.09;72.03;99610.66;2004030;80;20173;-76
2021/08/11 06:41:45;;;;;;;3.06;1.65;;;;;;;20.99;72.25;99614.63;2005056;80;20173;-76
2021/08/11 06:44:48;;;;;;;3.11;1.50;;;;;;;20.77;72.50;99616.47;2005650;80;20752;-75
2021/08/11 06:47:51;;;;;;;3.79;1.56;;;;;;;20.75;72.65;99611.25;1998972;78;36381;-77
2021/08/11 06:50:55;;;;;;;3.50;1.90;;;;;;;20.81;72.14;99610.13;1999895;81;20695;-75
2021/08/11 06:53:57;;;;;;;4.72;1.51;;;;;;;20.76;71.88;99604.19;1999967;81;20181;-75
2021/08/11 06:57:00;;;;;;;3.16;1.46;;;;;;;20.96;72.44;99603.34;2000535;81;20213;-75
2021/08/11 07:00:05;;;;;;;3.64;1.65;;;;;;;21.12;72.96;99597.31;2001608;80;20178;-76
2021/08/11 07:03:07;;;;;;;7.45;1.70;;;;;;;21.58;71.00;99597.94;1999503;78;25178;-76
2021/08/11 07:06:10;;;;;;;5.68;2.15;;;;;;;22.18;68.61;99603.06;2006358;80;20293;-76
2021/08/11 07:09:14;;;;;;;5.05;1.88;;;;;;;22.73;66.14;99606.47;2007790;80;20582;-76
2021/08/11 07:12:17;;;;;;;8.57;2.28;;;;;;;23.35;65.33;99606.84;2007052;80;20594;-76
2021/08/11 07:15:19;;;;;;;7.71;2.15;;;;;;;23.70;62.63;99613.78;2006182;80;20304;-75
2021/08/11 07:18:22;;;;;;;5.03;1.80;;;;;;;23.96;60.73;99604.38;2001351;78;38591;-75
2021/08/11 07:21:25;;;;;;;6.63;1.84;;;;;;;24.27;60.47;99607.94;2000016;81;20278;-76
2021/08/11 07:24:27;;;;;;;6.88;1.90;;;;;;;24.49;59.21;99605.78;2001664;81;20651;-76
2021/08/11 07:27:30;;;;;;;5.20;1.84;;;;;;;24.82;58.68;99616.25;2001378;81;20181;-76
2021/08/11 07:30:33;;;;;;;3.22;1.60;;;;;;;25.01;57.91;99605.41;1999912;78;26144;-75
2021/08/11 07:33:36;;;;;;;8.20;1.79;;;;;;;25.18;57.93;99613.22;2007307;80;20205;-75
2021/08/11 07:36:38;;;;;;;6.25;1.94;;;;;;;25.25;56.56;99603.91;2005830;80;20312;-76
2021/08/11 07:39:41;;;;;;;7.03;1.83;;;;;;;25.27;55.87;99607.31;2006474;80;20190;-76
2021/08/11 07:42:44;;;;;;;5.31;1.91;;;;;;;25.44;55.64;99608.09;2003583;80;20176;-76
2021/08/11 07:45:48;;;;;;;5.01;1.88;;;;;;;25.50;54.50;99611.22;2005509;78;26261;-72
2021/08/11 07:49:07;;;;;;;5.19;1.84;;;;;;;25.52;54.35;99608.47;2002312;81;21062;-74
2021/08/11 07:52:10;;;;;;;5.74;1.63;;;;;;;25.65;54.24;99616.53;2002231;81;20823;-73
2021/08/11 07:55:14;;;;;;;4.71;1.54;;;;;;;25.73;54.25;99615.13;2002285;81;20181;-73
2021/08/11 07:58:16;;;;;;;3.49;1.51;;;;;;;25.83;54.05;99618.91;2001890;81;20222;-73
2021/08/11 08:01:19;;;;;;;3.14;1.34;;;;;;;26.00;54.07;99614.31;2003184;78;38062;-74
2021/08/11 08:04:25;;;;;;;3.55;1.23;;;;;;;26.09;52.26;99622.56;2007201;80;20220;-76
2021/08/11 08:07:28;;;;;;;3.15;1.24;;;;;;;26.19;52.35;99618.34;2007211;80;20199;-77
2021/08/11 08:10:31;;;;;;;3.46;1.34;;;;;;;26.47;53.05;99617.44;2010607;80;20250;-76
2021/08/11 08:13:33;;;;;;;5.45;1.75;;;;;;;26.76;52.84;99622.63;2006667;80;20185;-76
2021/08/11 08:16:36;;;;;;;3.99;1.48;;;;;;;26.61;52.88;99621.84;2002411;78;94393;-76
2021/08/11 08:19:39;;;;;;;9.25;1.84;;;;;;;26.12;52.40;99632.16;2005156;80;20250;-78
2021/08/11 08:22:42;;;;;;;2.72;1.60;;;;;;;25.66;53.22;99626.22;2006120;80;20217;-74
2021/08/11 08:25:44;;;;;;;3.74;1.59;;;;;;;25.29;54.15;99620.50;2006134;80;20250;-74
2021/08/11 08:28:48;;;;;;;3.28;1.40;;;;;;;25.02;56.07;99625.72;2006550;80;20169;-73
2021/08/11 08:31:51;;;;;;;3.42;1.30;;;;;;;25.13;56.59;99619.72;2002485;78;40210;-73
2021/08/11 08:34:54;;;;;;;4.66;1.51;;;;;;;25.12;56.46;99626.00;2002185;81;20209;-74
2021/08/11 08:37:56;;;;;;;3.63;1.50;;;;;;;25.05;57.05;99624.66;2001153;81;20178;-73
2021/08/11 08:40:59;;;;;;;4.40;1.20;;;;;;;25.04;56.49;99621.16;1999464;81;20843;-73
2021/08/11 08:44:03;;;;;;;6.13;1.30;;;;;;;25.11;56.48;99635.78;1998796;81;20271;-73
2021/08/11 08:47:06;;;;;;;2.49;1.35;;;;;;;25.28;56.29;99632.09;2001690;78;93483;-73
2021/08/11 08:50:10;;;;;;;3.26;1.15;;;;;;;25.61;54.26;99635.34;2005817;80;20308;-75
2021/08/11 08:53:14;;;;;;;5.65;1.38;;;;;;;26.02;52.88;99629.22;2002558;80;20300;-74
2021/08/11 08:56:16;;;;;;;3.22;1.20;;;;;;;26.31;51.54;99637.16;2005498;80;20223;-74
2021/08/11 08:59:19;;;;;;;2.33;1.08;;;;;;;26.60;51.24;99632.63;2005490;80;20195;-73
2021/08/11 09:02:22;;;;;;;2.91;0.90;;;;;;;26.80;50.14;99637.47;2000664;78;21866;-73
2021/08/11 09:05:26;;;;;;;3.78;1.10;;;;;;;26.94;49.93;99639.19;2001293;81;20203;-74
2021/08/11 09:08:29;;;;;;;3.34;1.13;;;;;;;26.86;51.04;99636.19;2001086;81;20225;-74
2021/08/11 09:11:33;;;;;;;5.00;1.14;;;;;;;26.77;50.28;99643.00;2000652;81;20178;-74
2021/08/11 09:14:37;;;;;;;1.99;0.74;;;;;;;26.76;50.90;99654.63;2001852;81;20707;-74
2021/08/11 09:17:40;;;;;;;1.81;1.05;;;;;;;27.08;51.28;99655.13;2005324;78;27741;-73
2021/08/11 09:20:46;;;;;;;1.64;0.90;;;;;;;27.33;50.10;99652.47;2006237;80;20173;-73
2021/08/11 09:23:49;;;;;;;4.19;1.00;;;;;;;27.29;47.72;99661.66;2006447;80;20214;-76
2021/08/11 09:26:53;;;;;;;1.65;0.90;;;;;;;27.34;49.56;99656.00;2006097;80;20251;-76
2021/08/11 09:30:00;;;;;;;3.80;1.10;;;;;;;27.07;48.31;99658.72;2005109;80;20173;-77
2021/08/11 09:33:04;;;;;;;4.35;0.93;;;;;;;26.89;49.35;99647.47;2000127;78;20574;-74
2021/08/11 09:36:12;;;;;;;2.14;0.98;;;;;;;26.93;51.38;99650.78;2000255;81;20217;-74
2021/08/11 09:39:16;;;;;;;1.95;0.80;;;;;;;27.31;51.68;99656.22;2001364;81;20213;-75
2021/08/11 09:42:18;;;;;;;2.89;0.80;;;;;;;27.73;49.43;99646.19;2001773;81;20174;-74
2021/08/11 09:45:21;;;;;;;2.04;0.70;;;;;;;27.77;47.47;99642.34;2001563;80;20189;-74
2021/08/11 09:48:26;;;;;;;2.71;0.90;;;;;;;27.72;48.64;99647.16;2006270;78;24133;-74
2021/08/11 09:51:29;;;;;;;2.14;0.74;;;;;;;27.54;49.54;99643.94;2006756;80;20937;-74
2021/08/11 09:54:32;;;;;;;1.83;0.90;;;;;;;27.25;49.97;99654.81;2003252;80;20188;-75
2021/08/11 09:57:35;;;;;;;1.74;0.90;;;;;;;26.92;50.59;99649.06;2006395;80;20795;-75
2021/08/11 10:00:39;;;;;;;4.80;1.06;;;;;;;26.77;49.71;99649.19;2005022;78;20746;-74
2021/08/11 10:04:07;;;;;;;2.85;0.99;;;;;;;26.88;50.39;99645.78;2001881;81;20353;-74
2021/08/11 10:07:09;;;;;;;1.39;0.88;;;;;;;27.31;51.20;99645.56;2002806;81;20555;-74
2021/08/11 10:10:14;;;;;;;2.84;0.82;;;;;;;27.33;50.77;99643.63;2003257;81;20166;-74
2021/08/11 10:13:18;;;;;;;3.95;0.70;;;;;;;26.93;50.44;99645.44;2002855;81;20173;-73
2021/08/11 10:16:20;;;;;;;2.97;1.10;;;;;;;26.40;52.00;99653.44;2003194;77;22641;-74
2021/08/11 10:19:28;;;;;;;1.89;0.90;;;;;;;25.97;53.26;99649.97;2007322;80;20173;-73
2021/08/11 10:22:32;;;;;;;0.77;0.77;;;;;;;25.73;55.10;99644.41;2007392;80;20220;-73
2021/08/11 10:25:35;;;;;;;1.56;0.91;;;;;;;25.69;56.18;99642.88;2007753;80;20177;-73
2021/08/11 10:28:42;;;;;;;3.26;1.31;;;;;;;25.95;55.77;99646.53;2007653;80;20213;-73
2021/08/11 10:31:45;;;;;;;1.94;0.80;;;;;;;26.03;54.02;99648.72;2003185;78;21760;-73
2021/08/11 10:34:48;;;;;;;1.73;0.84;;;;;;;26.03;53.99;99643.38;2002333;81;20186;-73
2021/08/11 10:37:52;;;;;;;2.26;1.00;;;;;;;26.09;54.95;99643.00;2002472;81;20186;-73
2021/08/11 10:40:55;;;;;;;2.85;0.88;;;;;;;26.14;53.95;99644.41;2001917;81;20199;-73
2021/08/11 10:43:59;;;;;;;2.34;0.93;;;;;;;26.39;53.22;99637.53;2001919;81;20198;-73
2021/08/11 10:47:03;;;;;;;1.17;0.90;;;;;;;26.46;50.74;99636.19;2001358;78;21745;-73
2021/08/11 10:50:06;;;;;;;1.15;0.85;;;;;;;26.40;52.96;99632.13;2002331;81;20197;-73
2021/08/11 10:53:10;;;;;;;1.58;0.90;;;;;;;26.82;51.86;99632.03;2001324;81;20225;-74
2021/08/11 10:56:42;;;;;;;2.34;0.90;;;;;;;27.25;48.59;99625.47;2001249;81;20344;-74
2021/08/11 10:59:45;;;;;;;2.81;0.81;;;;;;;27.64;47.16;99631.66;2000437;81;20305;-74
2021/08/11 11:02:52;;;;;;;1.64;0.70;;;;;;;28.06;47.95;99632.25;2002809;80;35916;-74
2021/08/11 11:05:56;;;;;;;2.34;0.80;;;;;;;28.36;46.01;99630.00;2008888;80;20173;-74
2021/08/11 11:09:19;;;;;;;1.98;0.94;;;;;;;28.56;46.27;99629.41;2005452;80;20232;-74
2021/08/11 11:12:22;;;;;;;2.26;0.84;;;;;;;28.70;43.88;99633.69;2005393;80;20209;-74
2021/08/11 11:15:54;;;;;;;1.96;0.70;;;;;;;28.72;43.27;99626.41;2004248;78;21621;-74
2021/08/11 11:19:07;;;;;;;0.90;0.90;;;;;;;28.82;41.51;99624.75;1997669;81;20325;-76
2021/08/11 11:22:33;;;;;;;0.70;0.70;;;;;;;29.02;42.84;99614.38;2000066;81;20221;-76
2021/08/11 11:25:58;;;;;;;0.71;0.70;;;;;;;29.23;41.87;99620.72;2001892;81;20572;-75
2021/08/11 11:29:10;;;;;;;1.42;0.73;;;;;;;29.33;42.07;99605.66;2002350;81;20177;-76
2021/08/11 11:32:25;;;;;;;0.90;0.70;;;;;;;29.43;40.48;99621.84;2005211;78;20957;-76
2021/08/11 11:35:28;;;;;;;1.34;0.74;;;;;;;29.67;42.04;99621.78;2006888;80;20241;-74
2021/08/11 11:38:31;;;;;;;1.15;0.96;;;;;;;29.86;40.56;99613.13;2007395;80;20185;-74
2021/08/11 11:41:34;;;;;;;1.06;0.80;;;;;;;29.92;40.35;99596.53;2005102;80;20177;-74
2021/08/11 11:44:43;;;;;;;2.17;1.00;;;;;;;30.16;41.02;99601.75;2004925;80;20235;-74
2021/08/11 11:47:53;;;;;;;1.30;0.80;;;;;;;30.27;39.63;99602.56;2000398;78;21408;-74
2021/08/11 11:51:04;;;;;;;1.02;0.60;;;;;;;30.36;40.36;99609.88;2000410;81;20173;-74
2021/08/11 11:54:08;;;;;;;2.59;0.94;;;;;;;30.02;39.65;99611.75;2000508;81;20189;-73
2021/08/11 11:57:15;;;;;;;1.26;1.14;;;;;;;29.53;40.60;99605.94;1999196;81;20195;-74
2021/08/11 12:00:19;;;;;;;2.28;0.64;;;;;;;29.35;41.22;99602.88;2000433;80;20363;-74
2021/08/11 12:03:32;;;;;;;2.10;0.91;;;;;;;29.38;42.63;99592.78;2005226;78;32209;-74
2021/08/11 12:06:38;;;;;;;1.20;0.73;;;;;;;29.43;42.54;99584.38;2007563;80;20673;-73
2021/08/11 12:09:45;;;;;;;1.04;0.90;;;;;;;29.66;42.35;99586.13;2007562;80;20632;-73
2021/08/11 12:13:01;;;;;;;3.92;0.89;;;;;;;29.90;40.88;99577.06;2007191;80;20173;-73
2021/08/11 12:16:04;;;;;;;1.09;0.89;;;;;;;29.74;39.68;99585.50;2004685;78;20237;-73
2021/08/11 12:19:18;;;;;;;1.56;0.85;;;;;;;29.26;41.70;99579.50;2000677;81;20178;-73
2021/08/11 12:22:34;;;;;;;1.20;0.80;;;;;;;29.25;42.60;99575.13;1999656;81;20174;-73
2021/08/11 12:25:37;;;;;;;2.84;1.00;;;;;;;29.52;42.01;99567.63;1999991;81;20182;-73
2021/08/11 12:28:46;;;;;;;1.81;1.00;;;;;;;29.52;40.06;99574.81;2001357;81;20196;-74
2021/08/11 12:31:49;;;;;;;1.67;1.00;;;;;;;29.58;40.65;99577.84;2003451;78;23194;-73
2021/08/11 12:34:52;;;;;;;1.77;0.85;;;;;;;29.65;40.13;99570.19;2007149;80;20188;-73
2021/08/11 12:37:55;;;;;;;1.34;0.82;;;;;;;29.61;40.25;99574.06;2007445;80;20236;-73
2021/08/11 12:41:12;;;;;;;2.40;0.74;;;;;;;29.75;39.19;99576.50;2006649;80;20238;-73
2021/08/11 12:44:21;;;;;;;1.69;0.70;;;;;;;30.07;40.91;99573.91;2006450;80;20230;-73
2021/08/11 12:47:24;;;;;;;1.41;0.91;;;;;;;30.36;39.92;99568.81;2000831;78;20225;-73
2021/08/11 12:50:27;;;;;;;1.20;1.06;;;;;;;30.34;37.04;99574.31;2000736;81;20213;-73
2021/08/11 12:53:32;;;;;;;1.61;0.90;;;;;;;29.95;36.29;99566.84;2000779;81;20376;-73
2021/08/11 12:56:57;;;;;;;2.17;0.82;;;;;;;29.68;39.57;99569.94;2000197;81;20198;-73
2021/08/11 13:00:00;;;;;;;1.49;0.89;;;;;;;29.22;41.11;99564.69;2000724;81;20954;-73
2021/08/11 13:03:03;;;;;;;1.40;1.00;;;;;;;28.81;40.18;99571.41;1996022;78;21990;-73
2021/08/11 13:06:06;;;;;;;1.85;1.01;;;;;;;28.84;41.82;99568.47;1996518;81;20192;-74
2021/08/11 13:09:28;;;;;;;1.27;0.84;;;;;;;28.85;40.30;99575.53;1996393;81;20182;-74
2021/08/11 13:12:31;;;;;;;3.03;0.98;;;;;;;28.57;42.01;99569.63;1997491;81;20215;-73
2021/08/11 13:15:35;;;;;;;2.15;1.01;;;;;;;28.46;44.43;99574.94;1995140;81;20198;-73
2021/08/11 13:18:39;;;;;;;1.34;1.00;;;;;;;28.86;43.79;99582.63;1993141;81;20167;-73
2021/08/11 13:21:42;;;;;;;1.40;1.01;;;;;;;29.11;39.75;99571.75;1996364;81;20170;-74
2021/08/11 13:24:44;;;;;;;3.45;0.99;;;;;;;29.27;39.28;99567.88;1995633;81;20210;-73
2021/08/11 13:27:49;;;;;;;1.30;1.00;;;;;;;29.32;40.48;99573.69;1994222;81;20179;-73
2021/08/11 13:30:52;;;;;;;2.06;1.01;;;;;;;29.06;40.05;99573.03;1994156;78;20529;-73
2021/08/11 13:33:55;;;;;;;1.83;1.09;;;;;;;28.81;41.29;99582.94;2001299;81;20321;-72
2021/08/11 13:36:58;;;;;;;1.96;1.27;;;;;;;28.59;39.37;99578.38;2002652;81;20941;-73
2021/08/11 13:40:01;;;;;;;2.35;1.19;;;;;;;28.57;40.45;99583.00;2002006;81;20181;-72
2021/08/11 13:43:04;;;;;;;1.59;1.20;;;;;;;28.74;39.33;99576.38;2002486;81;20218;-73
2021/08/11 13:46:06;;;;;;;2.06;1.15;;;;;;;28.88;38.95;99576.16;2000905;78;27979;-73
2021/08/11 13:49:09;;;;;;;2.25;1.20;;;;;;;28.93;39.86;99570.50;2002702;81;20313;-73
2021/08/11 13:52:12;;;;;;;2.19;1.29;;;;;;;28.95;40.71;99573.06;2002404;81;20572;-72
2021/08/11 13:55:15;;;;;;;1.85;1.30;;;;;;;28.87;40.09;99563.78;2001848;81;20227;-71
2021/08/11 13:58:17;;;;;;;2.54;1.31;;;;;;;28.73;40.24;99569.31;2001960;81;20165;-72
2021/08/11 14:01:20;;;;;;;3.36;1.13;;;;;;;28.63;42.00;99562.97;2003347;78;34844;-73
2021/08/11 14:04:23;;;;;;;1.20;1.10;;;;;;;28.60;40.36;99560.53;2007860;80;20202;-72
2021/08/11 14:07:25;;;;;;;3.40;1.35;;;;;;;28.59;41.75;99565.03;2007256;80;21107;-74
2021/08/11 14:10:28;;;;;;;1.27;1.17;;;;;;;28.46;42.87;99561.56;2007283;80;20185;-73
2021/08/11 14:13:31;;;;;;;1.95;1.46;;;;;;;28.22;44.19;99569.59;2007285;80;20218;-72
2021/08/11 14:16:34;;;;;;;7.18;1.46;;;;;;;28.06;44.38;99566.34;2006690;79;22118;-72
2021/08/11 14:19:37;;;;;;;3.45;1.30;;;;;;;27.97;45.75;99561.66;2005465;80;20201;-76
2021/08/11 14:22:41;;;;;;;2.41;1.80;;;;;;;27.90;43.49;99563.09;2005287;80;20225;-75
2021/08/11 14:25:46;;;;;;;1.71;1.35;;;;;;;28.03;43.25;99547.88;2005916;80;20711;-71
2021/08/11 14:28:51;;;;;;;1.60;1.30;;;;;;;28.11;42.72;99549.97;2004653;80;20177;-73
2021/08/11 14:31:54;;;;;;;3.39;1.56;;;;;;;27.77;41.75;99555.13;1991012;80;940854;-72
2021/08/11 14:34:57;;;;;;;2.09;1.19;;;;;;;27.61;44.25;99544.66;2000367;81;20652;-73
2021/08/11 14:37:59;;;;;;;4.66;1.40;;;;;;;27.26;43.64;99549.00;1999685;81;20227;-73
2021/08/11 14:41:02;;;;;;;2.85;1.09;;;;;;;27.07;43.93;99563.63;2000194;81;20259;-73
2021/08/11 14:44:05;;;;;;;3.78;1.38;;;;;;;27.09;47.39;99563.50;1999847;81;20190;-75
2021/08/11 14:47:07;;;;;;;1.69;1.35;;;;;;;27.09;48.64;99572.34;2002501;78;20250;-72
2021/08/11 14:50:10;;;;;;;2.41;1.24;;;;;;;27.01;47.30;99565.88;2005412;80;20192;-73
2021/08/11 14:53:13;;;;;;;3.66;1.50;;;;;;;26.87;47.94;99561.44;2004722;80;20185;-76
2021/08/11 14:56:16;;;;;;;3.90;1.30;;;;;;;26.87;48.76;99560.59;2001875;80;20502;-77
2021/08/11 14:59:18;;;;;;;2.94;1.20;;;;;;;26.93;48.26;99558.38;2005974;80;20234;-76
2021/08/11 15:02:21;;;;;;;4.68;1.30;;;;;;;27.36;49.31;99550.06;2000741;79;23764;-75
2021/08/11 15:05:24;;;;;;;1.30;1.19;;;;;;;27.68;44.95;99540.66;2000086;80;20186;-76
2021/08/11 15:08:27;;;;;;;6.25;1.30;;;;;;;27.81;46.86;99537.91;2000223;81;20166;-76